BERRYESSA (BER)

Elevation: 456' · PUTAH CR basin · Operator: US Bureau of Reclamation

Provisional data, subject to change.
Query executed Monday at 10:03:33   clock

Select a sensor type for a plot of data.
Note: Reservoir Flows are daily averages.

Earlier

Date RES ELE    STORAGE    OUTFLOW    INFLOW    PPT INC   
 FEET   AF   CFS   CFS   INCHES  
07/05/2015 404.34 941503 585 -18 0.00
07/06/2015 404.22 939672 591 -199 0.00
07/07/2015 404.14 938453 600 113 0.00
07/08/2015 404.01 936472 600 -276 0.00
07/09/2015 403.93 935254 579 74 0.00
07/10/2015 403.85 934036 580 4 0.01
07/11/2015 403.74 932364 578 -199 0.00
07/12/2015 403.66 931148 580 66 0.00
07/13/2015 403.57 929781 616 36 0.00
07/14/2015 403.47 928263 649 -17 0.00
07/15/2015 403.36 926595 648 -89 0.00
07/16/2015 403.27 925231 638 68 0.00
07/17/2015 403.15 923414 688 -91 0.00
07/18/2015 403.05 921901 650 43 0.00
07/19/2015 402.92 919936 637 -213 0.00
07/20/2015 402.86 919029 597 239 0.00
07/21/2015 402.75 917368 586 -86 0.00
07/22/2015 402.65 915860 579 -26 0.00
07/23/2015 402.55 914353 501 -109 0.00
07/24/2015 402.47 913147 524 5 0.00
07/25/2015 402.38 911793 554 -26 0.00
07/26/2015 402.30 910589 564 65 0.00
07/27/2015 -- -- -- -- --
07/28/2015 -- -- -- -- --
07/29/2015 -- -- -- -- --
07/30/2015 -- -- -- -- --
07/31/2015 -- -- -- -- --
08/01/2015 -- -- -- -- --
08/02/2015 -- -- -- -- --
08/03/2015 -- -- -- -- --

Later | Latest

Warning! This data is preliminary and subject to revision.

Show BER Map | Plot BER Data | 1 Month BER Data | Real-Time BER Data | BER Info